Time;durP1;ratioP1;P1;durP2;ratioP2;P2;SDS_P1;SDS_P2;PMS_P1;PMS_P2;Temp;Humidity;BMP_temperature;BMP_pressure;BME280_temperature;BME280_humidity;BME280_pressure;Samples;Min_cycle;Max_cycle;Signal;HPM_P1;HPM_P2
2022/04/20 00:01:24;;;;;;;36.47;21.88;;;;;;;1.20;100.00;97173.69;6286869;22;20507;-84
2022/04/20 00:03:49;;;;;;;36.88;21.85;;;;;;;1.06;100.00;97159.16;6313356;22;20022;-86
2022/04/20 00:06:15;;;;;;;46.63;24.27;;;;;;;1.13;100.00;97174.78;6288120;22;19999;-84
2022/04/20 00:08:41;;;;;;;45.08;24.63;;;;;;;1.14;100.00;97171.25;6314164;22;20465;-84
2022/04/20 00:11:07;;;;;;;38.85;22.92;;;;;;;1.19;100.00;97170.19;6288033;22;20006;-85
2022/04/20 00:13:34;;;;;;;35.17;20.90;;;;;;;1.25;100.00;97174.41;6288310;22;20070;-84
2022/04/20 00:15:59;;;;;;;35.75;21.98;;;;;;;1.26;100.00;97171.69;6314125;22;20002;-84
2022/04/20 00:18:25;;;;;;;38.92;23.05;;;;;;;1.28;100.00;97164.63;6287636;22;20334;-84
2022/04/20 00:20:50;;;;;;;39.10;22.80;;;;;;;1.21;100.00;97155.19;6312933;22;20073;-84
2022/04/20 00:23:16;;;;;;;39.83;23.88;;;;;;;1.30;100.00;97177.72;6313490;22;20492;-84
2022/04/20 00:25:42;;;;;;;45.13;23.13;;;;;;;1.33;100.00;97175.00;6288522;22;20081;-85
2022/04/20 00:28:07;;;;;;;38.00;23.63;;;;;;;1.38;100.00;97189.78;6288025;22;20010;-86
2022/04/20 00:30:33;;;;;;;36.80;22.50;;;;;;;1.45;100.00;97174.59;6313661;22;19994;-85
2022/04/20 00:33:03;;;;;;;34.28;20.33;;;;;;;1.45;100.00;97166.72;6288441;22;20022;-85
2022/04/20 00:35:29;;;;;;;35.55;20.85;;;;;;;1.57;100.00;97172.44;6288797;22;20010;-86
2022/04/20 00:37:55;;;;;;;30.70;18.70;;;;;;;1.56;100.00;97167.25;6287698;22;20014;-85
2022/04/20 00:40:20;;;;;;;25.23;14.93;;;;;;;1.47;100.00;97157.88;6288094;22;20029;-85
2022/04/20 00:42:47;;;;;;;31.10;16.98;;;;;;;1.58;100.00;97184.72;6287907;22;20006;-85
2022/04/20 00:45:13;;;;;;;31.52;17.13;;;;;;;1.61;100.00;97176.72;6288659;22;20013;-85
2022/04/20 00:47:43;;;;;;;28.80;17.00;;;;;;;1.59;100.00;97165.38;6288914;22;20030;-86
2022/04/20 00:50:10;;;;;;;40.58;19.88;;;;;;;1.67;100.00;97173.00;6241076;22;20013;-85
2022/04/20 00:52:36;;;;;;;33.88;17.38;;;;;;;1.59;100.00;97168.00;6231032;22;20502;-85
2022/04/20 00:55:02;;;;;;;28.40;17.48;;;;;;;1.51;100.00;97172.66;6230248;23;20092;-85
2022/04/20 00:57:27;;;;;;;28.50;17.77;;;;;;;1.47;100.00;97171.03;6230500;22;20012;-86
2022/04/20 00:59:56;;;;;;;30.30;18.20;;;;;;;1.45;100.00;97171.97;6231620;23;20005;-85
2022/04/20 01:02:22;;;;;;;31.23;18.23;;;;;;;1.40;100.00;97164.25;6231289;23;20005;-74
2022/04/20 01:04:48;;;;;;;29.92;17.27;;;;;;;1.43;100.00;97172.03;6229403;22;20001;-85
2022/04/20 01:07:17;;;;;;;36.65;19.20;;;;;;;1.37;100.00;97163.47;6231727;23;20009;-83
2022/04/20 01:09:44;;;;;;;31.40;19.23;;;;;;;1.42;100.00;97167.69;6230566;23;20005;-84
2022/04/20 01:12:14;;;;;;;35.40;20.77;;;;;;;1.37;100.00;97156.44;6256865;22;20062;-84
2022/04/20 01:14:40;;;;;;;37.40;20.30;;;;;;;1.37;100.00;97160.84;6230535;22;20093;-84
2022/04/20 01:17:06;;;;;;;37.15;20.45;;;;;;;1.38;100.00;97157.31;6231071;23;20396;-84
2022/04/20 01:19:33;;;;;;;33.95;19.08;;;;;;;1.34;100.00;97159.16;6230541;22;20009;-84
2022/04/20 01:21:59;;;;;;;36.40;19.35;;;;;;;1.23;100.00;97144.63;6230452;22;20088;-84
2022/04/20 01:24:25;;;;;;;36.00;18.63;;;;;;;1.15;100.00;97150.13;6255537;22;20442;-83
2022/04/20 01:26:52;;;;;;;30.30;18.08;;;;;;;1.15;100.00;97144.84;6254552;22;20353;-84
2022/04/20 01:29:18;;;;;;;30.02;15.32;;;;;;;1.13;100.00;97149.31;6230791;22;20008;-84
2022/04/20 01:31:44;;;;;;;25.73;14.90;;;;;;;1.04;100.00;97129.41;6230990;22;20020;-83
2022/04/20 01:34:09;;;;;;;30.30;16.35;;;;;;;1.05;100.00;97140.78;6229426;23;20037;-84
2022/04/20 01:36:35;;;;;;;27.50;16.13;;;;;;;1.05;100.00;97146.91;6229070;23;20009;-84
2022/04/20 01:39:00;;;;;;;26.42;16.08;;;;;;;1.01;100.00;97134.75;6229623;23;20013;-84
2022/04/20 01:41:26;;;;;;;31.00;17.20;;;;;;;1.06;100.00;97146.00;6231371;23;20070;-84
2022/04/20 01:43:51;;;;;;;35.63;18.00;;;;;;;0.94;100.00;97133.22;6231088;23;20033;-84
2022/04/20 01:46:17;;;;;;;30.63;18.13;;;;;;;0.96;100.00;97135.78;6231639;22;20010;-84
2022/04/20 01:48:42;;;;;;;32.83;17.20;;;;;;;0.87;100.00;97136.06;6243579;22;20090;-84
2022/04/20 01:53:52;;;;;;;35.50;19.33;;;;;;;0.68;100.00;97134.94;6317428;22;20072;-84
2022/04/20 01:56:17;;;;;;;38.83;19.83;;;;;;;0.72;100.00;97145.31;6313232;22;19999;-83
2022/04/20 01:58:43;;;;;;;34.13;17.92;;;;;;;0.69;100.00;97142.75;6287490;22;19999;-83
2022/04/20 02:03:53;;;;;;;26.90;15.85;;;;;;;0.62;100.00;97148.22;6317835;22;20014;-84
2022/04/20 02:06:19;;;;;;;31.13;15.32;;;;;;;0.61;100.00;97138.63;6288040;22;20006;-84
2022/04/20 02:08:44;;;;;;;27.10;14.52;;;;;;;0.52;100.00;97150.31;6288076;22;20061;-84
2022/04/20 02:11:10;;;;;;;28.85;15.05;;;;;;;0.48;100.00;97144.25;6288437;22;20011;-84
2022/04/20 02:13:36;;;;;;;37.70;19.00;;;;;;;0.49;100.00;97151.22;6289009;22;20014;-84
2022/04/20 02:16:01;;;;;;;37.50;16.90;;;;;;;0.48;100.00;97143.41;6289013;22;20089;-84
2022/04/20 02:18:27;;;;;;;32.10;17.23;;;;;;;0.55;100.00;97144.94;6287814;22;20004;-84
2022/04/20 02:20:52;;;;;;;32.58;16.77;;;;;;;0.54;100.00;97137.97;6286189;22;20113;-84
2022/04/20 02:23:18;;;;;;;32.53;16.55;;;;;;;0.49;100.00;97139.88;6313265;22;20006;-84
2022/04/20 02:25:44;;;;;;;41.90;20.30;;;;;;;0.47;100.00;97137.25;6287469;22;20002;-84
2022/04/20 02:28:10;;;;;;;39.92;20.15;;;;;;;0.45;100.00;97146.97;6286327;22;20067;-84
2022/04/20 02:30:35;;;;;;;53.83;23.38;;;;;;;0.42;100.00;97143.56;6286461;22;20007;-84
2022/04/20 02:33:01;;;;;;;49.15;22.55;;;;;;;0.43;100.00;97135.63;6286042;22;19999;-85
2022/04/20 02:35:27;;;;;;;49.05;22.10;;;;;;;0.44;100.00;97132.09;6287408;22;20007;-84
2022/04/20 02:37:53;;;;;;;42.17;22.00;;;;;;;0.45;100.00;97131.19;6290837;22;20430;-85
2022/04/20 02:40:19;;;;;;;45.80;21.95;;;;;;;0.42;100.00;97123.41;6315465;22;20323;-84
2022/04/20 02:42:48;;;;;;;45.92;21.80;;;;;;;0.33;100.00;97123.66;6288087;22;19999;-85
2022/04/20 02:45:16;;;;;;;43.17;20.65;;;;;;;0.25;100.00;97103.72;6314902;22;20336;-85
2022/04/20 02:47:43;;;;;;;45.05;21.90;;;;;;;0.45;100.00;97128.56;6288490;22;20092;-85
2022/04/20 02:50:08;;;;;;;44.38;23.85;;;;;;;0.44;100.00;97118.94;6289014;22;20454;-85
2022/04/20 02:52:34;;;;;;;46.45;24.52;;;;;;;0.48;100.00;97128.47;6288049;22;20002;-84
2022/04/20 02:54:59;;;;;;;34.92;20.05;;;;;;;0.43;100.00;97119.84;6290191;22;20010;-84
2022/04/20 02:57:26;;;;;;;39.15;21.95;;;;;;;0.47;100.00;97132.00;6312559;22;20014;-84
2022/04/20 02:59:52;;;;;;;46.45;22.63;;;;;;;0.49;100.00;97132.81;6286202;22;20002;-84
2022/04/20 03:02:17;;;;;;;44.00;23.25;;;;;;;0.52;100.00;97140.63;6286272;22;20014;-84
2022/04/20 03:04:43;;;;;;;40.70;21.60;;;;;;;0.53;100.00;97138.84;6286933;22;20032;-85
2022/04/20 03:07:09;;;;;;;37.63;20.77;;;;;;;0.48;100.00;97135.50;6286632;22;20387;-84
2022/04/20 03:09:35;;;;;;;43.78;22.73;;;;;;;0.48;100.00;97131.09;6287153;22;20015;-84
2022/04/20 03:12:00;;;;;;;54.55;22.85;;;;;;;0.47;100.00;97132.00;6312902;22;20003;-85
2022/04/20 03:14:29;;;;;;;45.90;22.90;;;;;;;0.54;100.00;97156.38;6286317;22;20474;-86
2022/04/20 03:16:54;;;;;;;54.85;24.58;;;;;;;0.48;100.00;97139.00;6285960;22;20003;-85
2022/04/20 03:19:20;;;;;;;65.30;29.33;;;;;;;0.52;100.00;97140.63;6286233;22;20102;-83
2022/04/20 03:21:45;;;;;;;62.97;30.45;;;;;;;0.52;100.00;97158.19;6284598;22;20006;-83
2022/04/20 03:24:11;;;;;;;58.88;29.60;;;;;;;0.64;100.00;97159.59;6286559;22;20002;-84
2022/04/20 03:26:39;;;;;;;52.67;28.45;;;;;;;0.60;100.00;97157.97;6286701;22;20002;-84
2022/04/20 03:29:04;;;;;;;53.92;27.92;;;;;;;0.67;100.00;97162.13;6314685;22;19999;-84
2022/04/20 03:31:30;;;;;;;53.17;27.83;;;;;;;0.69;100.00;97155.91;6290789;22;19999;-84
2022/04/20 03:33:56;;;;;;;57.85;28.17;;;;;;;0.68;100.00;97156.81;6317063;22;19999;-84
2022/04/20 03:36:23;;;;;;;64.32;26.88;;;;;;;0.70;100.00;97133.97;6290041;22;20027;-84
2022/04/20 03:41:48;;;;;;;37.63;20.75;;;;;;;0.77;100.00;97160.97;6288766;22;20362;-85
2022/04/20 03:44:14;;;;;;;49.17;21.85;;;;;;;0.44;100.00;97094.41;6242934;22;20018;-85
2022/04/20 03:46:40;;;;;;;41.45;21.40;;;;;;;0.61;100.00;97128.13;6259543;22;20014;-85
2022/04/20 03:49:06;;;;;;;40.17;20.27;;;;;;;0.74;100.00;97142.66;6257939;22;20011;-85
2022/04/20 03:51:32;;;;;;;43.67;23.30;;;;;;;0.62;100.00;97128.06;6233784;22;20465;-84
2022/04/20 03:53:58;;;;;;;42.90;22.90;;;;;;;0.72;100.00;97150.56;6261033;22;20003;-84
2022/04/20 03:56:24;;;;;;;43.58;24.15;;;;;;;0.66;100.00;97145.47;6262142;22;20003;-84
2022/04/20 03:59:04;;;;;;;45.20;25.48;;;;;;;0.84;100.00;97157.22;6262574;22;20023;-85
2022/04/20 04:01:30;;;;;;;48.13;24.67;;;;;;;0.92;100.00;97144.72;6285442;22;20007;-82
2022/04/20 04:03:59;;;;;;;51.45;27.13;;;;;;;0.78;100.00;97117.94;6287259;22;20029;-84
2022/04/20 04:06:27;;;;;;;34.50;19.90;;;;;;;0.84;100.00;97125.66;6314774;22;20060;-84
2022/04/20 04:08:56;;;;;;;32.83;19.00;;;;;;;0.84;100.00;97129.13;6287326;22;20002;-84
2022/04/20 04:11:21;;;;;;;33.90;19.98;;;;;;;0.89;100.00;97131.66;6262945;22;20093;-74
2022/04/20 04:13:47;;;;;;;38.25;22.00;;;;;;;1.00;100.00;97143.56;6253842;22;20474;-80
2022/04/20 04:16:12;;;;;;;44.53;25.05;;;;;;;1.07;100.00;97133.72;6278814;22;20003;-81
2022/04/20 04:18:38;;;;;;;55.78;27.92;;;;;;;1.11;100.00;97132.69;6252670;22;19999;-81
2022/04/20 04:21:03;;;;;;;59.85;30.27;;;;;;;1.18;100.00;97147.38;6278545;22;20008;-73
2022/04/20 04:23:29;;;;;;;56.33;28.83;;;;;;;1.09;100.00;97127.47;6277187;22;20124;-74
2022/04/20 04:25:54;;;;;;;48.97;24.13;;;;;;;1.19;100.00;97135.09;6251477;22;20003;-73
2022/04/20 04:28:20;;;;;;;150.18;25.75;;;;;;;1.19;100.00;97133.31;6251994;22;20010;-73
2022/04/20 04:30:45;;;;;;;86.40;24.55;;;;;;;1.27;100.00;97135.69;6304543;22;20389;-72
2022/04/20 04:33:11;;;;;;;51.13;24.85;;;;;;;1.56;100.00;97149.66;6277378;22;20385;-73
2022/04/20 04:35:36;;;;;;;61.00;29.17;;;;;;;1.59;100.00;97148.69;6251466;22;20415;-74
2022/04/20 04:38:02;;;;;;;48.30;25.55;;;;;;;1.69;100.00;97146.63;6277279;22;20026;-73
2022/04/20 04:40:28;;;;;;;42.78;23.40;;;;;;;1.79;100.00;97134.81;6277185;22;20355;-73
2022/04/20 04:42:53;;;;;;;48.08;24.10;;;;;;;1.92;100.00;97130.88;6304465;22;20057;-73
2022/04/20 04:50:47;;;;;;;43.92;24.08;;;;;;;2.21;100.00;97117.53;6304324;22;20382;-73
2022/04/20 04:53:13;;;;;;;40.55;24.17;;;;;;;2.22;100.00;97113.09;6276231;22;20011;-73
2022/04/20 04:55:38;;;;;;;44.20;24.67;;;;;;;2.28;100.00;97119.00;6277192;22;20078;-74
2022/04/20 04:58:04;;;;;;;45.35;25.23;;;;;;;2.59;100.00;97121.38;6277173;22;20306;-74
2022/04/20 05:00:30;;;;;;;42.15;22.23;;;;;;;2.80;100.00;97125.00;6250908;22;20013;-74
2022/04/20 05:02:55;;;;;;;57.85;30.42;;;;;;;2.97;100.00;97125.22;6276595;22;20090;-74
2022/04/20 05:05:21;;;;;;;49.80;27.90;;;;;;;2.96;100.00;97128.75;6276362;22;20362;-74
2022/04/20 05:07:46;;;;;;;51.67;26.92;;;;;;;3.12;100.00;97125.47;6277142;22;20488;-73
2022/04/20 05:10:12;;;;;;;51.50;26.02;;;;;;;2.98;100.00;97111.09;6283320;22;20000;-84
2022/04/20 05:12:37;;;;;;;48.00;25.80;;;;;;;3.03;100.00;97115.25;6257850;22;20034;-86
2022/04/20 05:15:19;;;;;;;66.78;34.88;;;;;;;3.13;100.00;97121.06;6255130;22;20003;-88
2022/04/20 05:17:45;;;;;;;70.18;35.38;;;;;;;3.17;100.00;97106.78;6281279;22;20003;-88
2022/04/20 05:20:14;;;;;;;55.55;31.35;;;;;;;3.16;100.00;97102.44;6255446;22;20057;-87
2022/04/20 05:22:39;;;;;;;62.05;32.97;;;;;;;3.16;100.00;97107.72;6280962;22;20011;-88
2022/04/20 05:25:05;;;;;;;62.22;35.03;;;;;;;3.02;100.00;97113.53;6253820;22;20125;-88
2022/04/20 05:27:32;;;;;;;78.55;41.95;;;;;;;3.03;100.00;97106.47;6280300;22;20014;-86
2022/04/20 05:29:58;;;;;;;84.47;41.58;;;;;;;3.11;100.00;97096.44;6254281;22;20064;-85
2022/04/20 05:32:23;;;;;;;88.22;45.28;;;;;;;3.28;100.00;97120.44;6280616;22;20003;-85
2022/04/20 05:34:49;;;;;;;78.57;43.55;;;;;;;3.42;100.00;97123.38;6279462;22;20013;-86
2022/04/20 05:42:44;;;;;;;67.85;36.30;;;;;;;3.64;100.00;97134.78;6282769;22;20124;-85
2022/04/20 05:45:12;;;;;;;71.45;35.50;;;;;;;3.65;100.00;97123.31;6306713;22;20089;-85
2022/04/20 05:47:39;;;;;;;60.25;32.05;;;;;;;3.72;100.00;97121.28;6254762;22;20003;-85
2022/04/20 05:50:05;;;;;;;60.75;33.53;;;;;;;3.87;100.00;97144.44;6254834;22;20018;-84
2022/04/20 05:52:31;;;;;;;58.58;33.15;;;;;;;3.73;100.00;97134.41;6279963;22;20025;-85
2022/04/20 05:54:57;;;;;;;71.05;36.63;;;;;;;3.83;100.00;97145.47;6280075;22;19999;-84
2022/04/20 05:57:24;;;;;;;65.72;37.97;;;;;;;3.90;100.00;97135.50;6255677;22;20405;-83
2022/04/20 05:59:49;;;;;;;67.07;34.75;;;;;;;4.12;100.00;97131.03;6256096;22;19999;-85
2022/04/20 06:02:15;;;;;;;66.63;37.00;;;;;;;4.07;100.00;97138.28;6260184;22;20072;-85
2022/04/20 06:04:40;;;;;;;75.43;41.65;;;;;;;4.06;100.00;97144.50;6267106;22;20014;-84
2022/04/20 06:07:06;;;;;;;78.00;39.80;;;;;;;4.10;100.00;97140.78;6270766;22;20078;-85
2022/04/20 06:09:32;;;;;;;86.53;41.70;;;;;;;4.17;100.00;97147.56;6270549;22;20006;-85
2022/04/20 06:11:59;;;;;;;72.97;41.50;;;;;;;4.12;100.00;97146.91;6260326;22;20010;-88
2022/04/20 06:14:28;;;;;;;72.93;38.85;;;;;;;3.97;100.00;97118.44;6281283;22;20007;-86
2022/04/20 06:16:53;;;;;;;52.58;30.30;;;;;;;4.15;100.00;97136.19;6258084;22;20007;-83
2022/04/20 06:19:19;;;;;;;62.85;29.70;;;;;;;3.78;100.00;97116.56;6255824;22;20021;-84
2022/04/20 06:21:44;;;;;;;53.72;29.85;;;;;;;3.76;100.00;97125.50;6281084;22;20038;-83
2022/04/20 06:24:10;;;;;;;65.10;31.52;;;;;;;3.81;100.00;97134.94;6255210;22;20006;-85
2022/04/20 06:26:36;;;;;;;68.05;33.45;;;;;;;3.73;100.00;97133.56;6257672;22;20324;-83
2022/04/20 06:29:01;;;;;;;58.53;31.65;;;;;;;4.01;100.00;97134.13;6263351;22;20000;-84
2022/04/20 06:31:27;;;;;;;67.22;34.58;;;;;;;3.95;100.00;97137.03;6259056;22;20002;-84
2022/04/20 06:33:57;;;;;;;62.47;34.17;;;;;;;4.00;100.00;97124.44;6256663;22;20044;-85
2022/04/20 06:36:24;;;;;;;64.70;32.53;;;;;;;4.11;100.00;97124.00;6259083;22;20462;-86
2022/04/20 06:38:50;;;;;;;68.95;37.22;;;;;;;4.27;100.00;97128.56;6264305;22;20355;-85
2022/04/20 06:41:15;;;;;;;60.22;29.92;;;;;;;4.40;100.00;97131.50;6266433;22;19999;-84
2022/04/20 06:43:41;;;;;;;55.28;30.58;;;;;;;4.30;100.00;97127.56;6263801;22;20007;-84
2022/04/20 06:46:06;;;;;;;61.47;32.50;;;;;;;4.54;100.00;97133.56;6261364;22;19999;-84
2022/04/20 06:48:32;;;;;;;76.68;33.95;;;;;;;4.58;100.00;97120.13;6261583;22;20042;-85
2022/04/20 06:50:57;;;;;;;56.70;32.47;;;;;;;4.82;100.00;97108.41;6257108;22;20012;-85
2022/04/20 06:58:52;;;;;;;62.78;32.78;;;;;;;5.20;100.00;97109.22;6287572;22;20017;-85
2022/04/20 07:01:17;;;;;;;66.32;31.48;;;;;;;5.42;100.00;97115.22;6258069;22;20007;-85
2022/04/20 07:03:43;;;;;;;64.97;30.13;;;;;;;5.57;100.00;97121.56;6257442;22;20004;-84
2022/04/20 07:06:09;;;;;;;66.75;33.70;;;;;;;5.72;98.17;97134.06;6261365;22;20028;-85
2022/04/20 07:08:35;;;;;;;56.05;30.80;;;;;;;5.39;100.00;97138.38;6259718;22;20443;-84
2022/04/20 07:11:01;;;;;;;51.38;27.50;;;;;;;5.44;100.00;97128.44;6255182;22;20061;-84
2022/04/20 07:13:27;;;;;;;48.65;26.85;;;;;;;5.75;100.00;97122.47;6254511;22;20007;-84
2022/04/20 07:15:52;;;;;;;33.35;19.85;;;;;;;5.92;93.37;97106.59;6254655;22;20383;-84
2022/04/20 07:18:18;;;;;;;31.65;16.33;;;;;;;6.26;89.83;97108.38;6255066;22;20007;-85
2022/04/20 07:20:44;;;;;;;32.00;18.05;;;;;;;6.44;87.54;97102.09;6255337;22;19999;-85
2022/04/20 07:23:10;;;;;;;11.55;6.43;;;;;;;6.63;84.37;97113.47;6255476;22;20010;-85
2022/04/20 07:25:36;;;;;;;11.55;4.75;;;;;;;7.04;80.89;97103.25;6282757;22;20003;-84
2022/04/20 07:28:03;;;;;;;7.35;5.00;;;;;;;7.24;78.34;97112.78;6281844;22;20031;-85
2022/04/20 07:30:29;;;;;;;8.25;5.38;;;;;;;7.44;77.84;97115.19;6261853;22;20002;-85
2022/04/20 07:32:54;;;;;;;12.25;7.43;;;;;;;7.53;77.19;97117.34;6258676;22;20003;-85
2022/04/20 07:35:20;;;;;;;6.07;4.45;;;;;;;7.59;76.76;97117.84;6288432;22;20007;-85
2022/04/20 07:37:46;;;;;;;8.45;5.63;;;;;;;7.65;76.31;97135.25;6289707;22;20014;-84
2022/04/20 07:40:15;;;;;;;5.30;4.22;;;;;;;7.69;76.04;97134.13;6265206;22;20006;-84
2022/04/20 07:42:41;;;;;;;6.70;4.28;;;;;;;7.58;75.87;97131.22;6263439;22;20007;-84
2022/04/20 07:45:08;;;;;;;11.95;5.20;;;;;;;7.54;76.71;97140.31;6263121;22;20007;-84
2022/04/20 07:47:33;;;;;;;6.05;4.07;;;;;;;7.44;76.33;97125.84;6264974;22;20003;-84
2022/04/20 07:52:45;;;;;;;6.45;4.45;;;;;;;7.09;79.77;97136.63;6287596;22;20469;-83
2022/04/20 07:55:12;;;;;;;11.32;4.97;;;;;;;7.04;81.29;97079.34;6289028;22;20466;-84
2022/04/20 07:57:38;;;;;;;11.10;5.47;;;;;;;6.95;83.06;97104.59;6291261;22;20003;-83
2022/04/20 08:00:07;;;;;;;6.38;3.85;;;;;;;6.96;82.72;97122.28;6292396;22;20315;-83
2022/04/20 08:02:33;;;;;;;7.60;5.18;;;;;;;6.99;82.69;97130.09;6292483;22;20065;-84
2022/04/20 08:04:59;;;;;;;9.35;5.90;;;;;;;7.03;83.11;97120.16;6266710;22;19999;-84
2022/04/20 08:07:26;;;;;;;4.00;2.35;;;;;;;7.04;82.57;97125.38;6285670;22;20010;-83
2022/04/20 08:09:52;;;;;;;9.13;5.70;;;;;;;7.07;83.60;97114.56;6263157;22;20013;-83
2022/04/20 08:12:17;;;;;;;7.35;5.22;;;;;;;6.91;86.21;97107.53;6261354;22;20073;-84
2022/04/20 08:14:43;;;;;;;7.75;5.18;;;;;;;6.86;86.68;97113.06;6284056;22;19999;-84
2022/04/20 08:17:09;;;;;;;9.23;6.32;;;;;;;6.87;89.00;97132.56;6260263;22;20014;-84
2022/04/20 08:19:34;;;;;;;5.65;4.18;;;;;;;6.83;89.42;97113.25;6256497;22;20405;-84
2022/04/20 08:22:00;;;;;;;14.55;5.40;;;;;;;6.68;90.15;97105.22;6281090;22;20072;-84
2022/04/20 08:24:25;;;;;;;7.85;5.40;;;;;;;6.67;93.27;97119.50;6257140;22;20006;-84
2022/04/20 08:26:51;;;;;;;7.80;6.25;;;;;;;6.74;93.53;97132.34;6258965;22;20340;-85
2022/04/20 08:29:17;;;;;;;5.68;4.07;;;;;;;6.71;90.97;97108.59;6282226;22;20074;-85
2022/04/20 08:31:43;;;;;;;11.45;7.20;;;;;;;6.94;92.87;97118.84;6260408;22;20014;-85
2022/04/20 08:34:08;;;;;;;5.07;3.85;;;;;;;7.05;90.39;97105.81;6288581;22;20018;-84
2022/04/20 08:36:34;;;;;;;12.05;7.32;;;;;;;7.20;90.11;97109.44;6290827;22;20003;-85
2022/04/20 08:39:00;;;;;;;9.07;6.68;;;;;;;7.33;88.67;97089.19;6266169;22;19999;-85
2022/04/20 08:41:25;;;;;;;11.25;6.95;;;;;;;7.63;88.05;97097.22;6263102;22;20007;-84
2022/04/20 08:43:52;;;;;;;12.05;5.95;;;;;;;7.83;84.90;97096.94;6260610;22;20041;-85
2022/04/20 08:46:18;;;;;;;10.75;6.65;;;;;;;8.04;83.33;97082.34;6284795;22;20003;-84
2022/04/20 08:48:47;;;;;;;8.45;5.65;;;;;;;8.29;82.05;97076.44;6261584;22;20014;-84
2022/04/20 08:51:12;;;;;;;13.38;7.90;;;;;;;8.42;80.24;97087.22;6259145;22;20111;-85
2022/04/20 08:53:38;;;;;;;7.25;3.72;;;;;;;8.49;79.64;97080.59;6258583;22;20084;-85
2022/04/20 08:58:53;;;;;;;10.80;7.50;;;;;;;8.46;80.03;97088.75;6286994;22;20033;-84
2022/04/20 09:01:19;;;;;;;4.95;3.95;;;;;;;8.50;79.85;97082.28;6256973;22;20011;-84
2022/04/20 09:03:49;;;;;;;86.07;32.95;;;;;;;8.65;79.09;97105.31;6282864;22;20077;-84
2022/04/20 09:06:15;;;;;;;89.95;40.70;;;;;;;8.68;78.34;97094.47;6282210;22;20007;-85
2022/04/20 09:08:41;;;;;;;21.20;11.48;;;;;;;8.69;78.01;97081.06;6256797;22;20413;-85
2022/04/20 09:11:08;;;;;;;20.27;12.93;;;;;;;8.73;79.22;97080.88;6281050;22;20034;-85
2022/04/20 09:13:39;;;;;;;24.92;14.25;;;;;;;8.89;77.21;97077.13;6254250;22;20474;-84
2022/04/20 09:16:06;;;;;;;10.88;6.80;;;;;;;8.99;76.50;97083.59;6254062;22;20003;-84
2022/04/20 09:18:32;;;;;;;12.68;8.57;;;;;;;9.18;76.80;97083.31;6279053;22;20010;-84
2022/04/20 09:21:08;;;;;;;14.10;10.00;;;;;;;9.60;75.06;97083.19;6255309;22;20018;-85
2022/04/20 09:23:34;;;;;;;8.52;6.55;;;;;;;9.63;74.85;97084.78;6280889;22;20086;-84
2022/04/20 09:26:17;;;;;;;8.75;6.63;;;;;;;9.52;73.95;97093.53;6255306;22;20373;-86
2022/04/20 09:29:03;;;;;;;10.25;7.68;;;;;;;9.47;74.61;97097.44;6257412;22;20007;-85
2022/04/20 09:31:42;;;;;;;9.63;7.10;;;;;;;9.40;75.23;97096.13;6281973;22;20030;-86
2022/04/20 09:34:08;;;;;;;7.38;4.75;;;;;;;9.33;73.85;97098.31;6283788;22;20007;-85
2022/04/20 09:36:48;;;;;;;10.77;6.82;;;;;;;9.35;74.56;97076.91;6283111;22;20010;-86
2022/04/20 09:39:14;;;;;;;16.52;9.18;;;;;;;9.37;74.29;97081.19;6262432;22;20023;-86
2022/04/20 09:42:01;;;;;;;13.23;8.75;;;;;;;9.41;74.10;97057.81;6287734;22;20011;-86
2022/04/20 09:44:28;;;;;;;9.10;6.40;;;;;;;9.41;74.33;97044.47;6257436;22;20082;-85
2022/04/20 09:50:19;;;;;;;18.17;11.38;;;;;;;9.61;73.94;97050.19;6286452;22;20049;-87
2022/04/20 09:52:49;;;;;;;21.35;12.45;;;;;;;9.48;73.89;97017.25;6281497;22;20011;-84
2022/04/20 09:55:32;;;;;;;14.93;9.32;;;;;;;9.65;74.60;97041.03;6258531;22;20007;-84
2022/04/20 09:58:10;;;;;;;27.70;13.38;;;;;;;10.00;72.89;97062.69;6288574;22;20513;-85
2022/04/20 10:00:45;;;;;;;15.73;9.38;;;;;;;10.04;72.30;97066.88;6257328;22;19999;-85
2022/04/20 10:03:11;;;;;;;15.88;11.15;;;;;;;9.97;71.84;97060.22;6261692;22;20363;-84
2022/04/20 10:05:37;;;;;;;14.02;7.50;;;;;;;9.84;72.71;97062.03;6262782;22;20027;-84
2022/04/20 10:08:04;;;;;;;13.93;9.10;;;;;;;9.74;73.26;97067.13;6293902;22;20354;-85
2022/04/20 10:10:30;;;;;;;12.63;8.68;;;;;;;9.72;73.54;97061.00;6267290;22;20003;-85
2022/04/20 10:12:56;;;;;;;12.00;7.53;;;;;;;9.71;72.69;97050.44;6265301;22;20415;-85
2022/04/20 10:18:09;;;;;;;10.93;7.65;;;;;;;9.98;72.87;97048.59;6295216;22;20010;-85
2022/04/20 10:20:35;;;;;;;9.57;7.25;;;;;;;10.30;71.64;97047.28;6266504;22;19999;-85
2022/04/20 10:23:03;;;;;;;11.27;7.40;;;;;;;10.37;72.06;97049.56;6266771;22;20015;-85
2022/04/20 10:25:29;;;;;;;11.68;8.07;;;;;;;10.33;70.59;97048.91;6263122;22;20007;-85
2022/04/20 10:28:17;;;;;;;16.42;9.90;;;;;;;10.41;71.61;97048.38;6293565;22;20038;-86
2022/04/20 10:31:02;;;;;;;15.43;10.75;;;;;;;10.60;72.54;97060.34;6267787;22;20010;-84
2022/04/20 10:33:31;;;;;;;19.45;13.23;;;;;;;10.68;72.79;97054.44;6267483;22;20503;-85
2022/04/20 10:36:04;;;;;;;13.57;9.43;;;;;;;10.51;71.86;97047.63;6268018;22;20007;-84
2022/04/20 10:38:32;;;;;;;10.07;7.57;;;;;;;10.30;73.81;97049.94;6268817;22;20324;-86
2022/04/20 10:41:19;;;;;;;14.88;11.00;;;;;;;10.15;74.75;97052.84;6264707;22;20003;-84
2022/04/20 10:43:45;;;;;;;11.23;8.20;;;;;;;9.92;77.30;97043.66;6257928;22;20011;-85
2022/04/20 10:46:18;;;;;;;21.33;12.27;;;;;;;9.95;79.16;97031.91;6254087;22;20002;-87
2022/04/20 10:48:58;;;;;;;14.90;10.30;;;;;;;10.20;79.39;97029.31;6256740;22;20003;-85
2022/04/20 10:51:30;;;;;;;20.92;13.65;;;;;;;10.18;79.96;97024.06;6255073;22;20007;-84
2022/04/20 10:54:24;;;;;;;19.13;11.97;;;;;;;10.41;81.94;97035.00;6284815;22;20094;-87
2022/04/20 10:57:02;;;;;;;13.07;9.48;;;;;;;10.38;79.53;97020.03;6279719;22;20070;-83
2022/04/20 10:59:28;;;;;;;10.18;8.13;;;;;;;10.28;80.48;97018.94;6309036;22;19996;-83
2022/04/20 11:02:09;;;;;;;8.45;6.70;;;;;;;9.86;79.63;97011.16;6279382;22;20011;-86
2022/04/20 11:04:43;;;;;;;9.35;6.32;;;;;;;9.81;80.50;97024.84;6253672;22;19999;-85
2022/04/20 11:07:08;;;;;;;12.00;8.52;;;;;;;9.73;83.86;97040.50;6278868;22;20007;-84
2022/04/20 11:09:44;;;;;;;9.77;7.53;;;;;;;9.38;86.92;97039.34;6278514;22;20049;-86
2022/04/20 11:21:06;;;;;;;26.10;16.10;;;;;;;9.47;92.61;97017.38;6305509;22;20064;-85
2022/04/20 11:23:55;;;;;;;37.88;20.05;;;;;;;9.55;92.91;97013.22;6277930;22;20011;-85
2022/04/20 11:26:28;;;;;;;42.63;21.88;;;;;;;9.31;95.78;97014.00;6259120;22;20085;-86
2022/04/20 11:29:00;;;;;;;44.33;21.85;;;;;;;9.17;96.93;97030.88;6252851;22;20470;-85
2022/04/20 11:31:26;;;;;;;28.60;17.38;;;;;;;8.89;96.31;97026.47;6253585;22;20090;-85
2022/04/20 11:33:53;;;;;;;30.95;18.38;;;;;;;8.75;98.99;97021.16;6252888;22;20107;-85
2022/04/20 11:36:19;;;;;;;30.40;18.60;;;;;;;8.68;99.94;97022.50;6252780;22;20003;-84
2022/04/20 11:39:03;;;;;;;31.27;18.55;;;;;;;8.65;100.00;97002.22;6278344;22;20003;-85
2022/04/20 11:41:29;;;;;;;38.83;20.45;;;;;;;8.75;100.00;97005.16;6278568;22;20011;-86
2022/04/20 11:43:54;;;;;;;37.10;19.92;;;;;;;8.92;100.00;97012.94;6252294;22;20064;-86
2022/04/20 11:46:23;;;;;;;31.80;18.42;;;;;;;9.12;100.00;97022.34;6252296;22;20398;-85
2022/04/20 11:49:12;;;;;;;;;;;;;;;;;;;;;
2022/04/20 11:52:11;;;;;;;21.30;14.65;;;;;;;8.85;100.00;97000.97;6249299;22;20747;-85
2022/04/20 11:55:20;;;;;;;23.23;16.48;;;;;;;9.07;100.00;97019.97;6225495;22;20050;-86
2022/04/20 11:57:46;;;;;;;26.42;16.92;;;;;;;9.04;100.00;96998.84;6271770;22;20041;-76
2022/04/20 12:00:12;;;;;;;27.05;17.85;;;;;;;9.13;100.00;97016.06;6270129;22;20004;-75
2022/04/20 12:02:38;;;;;;;36.92;21.27;;;;;;;9.07;100.00;97014.66;6245468;22;20467;-86
2022/04/20 12:05:07;;;;;;;33.50;19.98;;;;;;;9.08;100.00;97011.00;6221377;22;20083;-86
2022/04/20 12:07:34;;;;;;;31.73;19.95;;;;;;;8.84;100.00;97007.25;6272408;22;20008;-86
2022/04/20 12:10:02;;;;;;;24.67;15.70;;;;;;;8.52;100.00;97008.44;6246457;22;20026;-85
2022/04/20 12:12:29;;;;;;;26.30;17.05;;;;;;;8.31;100.00;97009.72;6221717;22;20452;-86